createdAt,value
2022-09-03T00:00:54.734Z,16.52
2022-09-03T00:06:03.490Z,16.60
2022-09-03T00:11:14.456Z,16.22
2022-09-03T00:16:27.440Z,16.27
2022-09-03T00:21:36.863Z,16.43
2022-09-03T00:26:42.819Z,16.06
2022-09-03T00:32:00.581Z,16.47
2022-09-03T00:37:00.707Z,16.42
2022-09-03T00:42:15.384Z,16.64
2022-09-03T00:47:22.604Z,16.42
2022-09-03T00:52:36.859Z,16.09
2022-09-03T00:57:47.930Z,16.72
2022-09-03T01:02:58.834Z,16.42
2022-09-03T01:08:08.193Z,16.16
2022-09-03T01:13:13.138Z,16.33
2022-09-03T01:18:24.806Z,16.37
2022-09-03T01:23:57.346Z,16.61
2022-09-03T01:29:07.015Z,16.06
2022-09-03T01:34:16.705Z,16.38
2022-09-03T01:39:32.563Z,16.06
2022-09-03T01:44:58.042Z,16.33
2022-09-03T01:50:07.147Z,16.31
2022-09-03T01:55:25.071Z,16.06
2022-09-03T02:00:27.912Z,16.02
2022-09-03T02:05:29.790Z,16.04
2022-09-03T02:10:36.261Z,15.95
2022-09-03T02:15:49.687Z,15.85
2022-09-03T02:20:52.316Z,16.28
2022-09-03T02:25:56.149Z,15.85
2022-09-03T02:30:57.113Z,16.23
2022-09-03T02:36:09.636Z,16.04
2022-09-03T02:41:23.810Z,15.65
2022-09-03T02:46:33.821Z,16.09
2022-09-03T02:51:51.505Z,15.68
2022-09-03T02:56:52.880Z,15.92
2022-09-03T03:01:51.154Z,16.10
2022-09-03T03:07:25.823Z,16.35
2022-09-03T03:12:24.764Z,15.76
2022-09-03T03:17:27.942Z,15.83
2022-09-03T03:22:49.799Z,16.35
2022-09-03T03:28:03.978Z,16.76
2022-09-03T03:33:55.906Z,16.03
2022-09-03T04:45:11.445Z,15.73
2022-09-03T04:51:13.577Z,15.83
2022-09-03T04:57:55.142Z,15.97
2022-09-03T05:04:02.504Z,15.93
2022-09-03T05:10:36.521Z,16.67
2022-09-03T05:15:58.138Z,16.84
2022-09-03T05:27:34.760Z,16.58
2022-09-03T05:33:09.546Z,16.56
2022-09-03T05:38:39.576Z,16.74
2022-09-03T05:43:55.656Z,16.91
2022-09-03T05:54:48.183Z,16.73
2022-09-03T06:00:19.581Z,15.98
2022-09-03T06:05:44.778Z,16.61
2022-09-03T06:11:02.806Z,16.50
2022-09-03T06:16:41.224Z,16.33
2022-09-03T06:22:10.924Z,16.39
2022-09-03T06:27:59.526Z,16.74
2022-09-03T06:33:22.501Z,16.05
2022-09-03T06:38:42.368Z,16.25
2022-09-03T06:49:43.024Z,16.79
2022-09-03T06:54:56.554Z,16.27
2022-09-03T07:00:09.200Z,16.48
2022-09-03T07:11:13.460Z,16.94
2022-09-03T07:17:14.660Z,16.95
2022-09-03T07:35:45.553Z,17.06
2022-09-03T07:42:00.439Z,17.46
2022-09-03T07:54:46.819Z,17.56
2022-09-03T09:53:01.440Z,17.44
2022-09-03T12:09:51.036Z,18.00
2022-09-03T12:15:01.931Z,18.19
2022-09-03T12:20:15.391Z,18.22
2022-09-03T12:25:15.130Z,18.33
2022-09-03T12:30:17.813Z,18.52
2022-09-03T12:46:37.355Z,18.64
2022-09-03T12:52:03.157Z,18.89
2022-09-03T12:57:08.607Z,18.80
2022-09-03T13:02:20.698Z,18.91
2022-09-03T13:07:44.714Z,18.51
2022-09-03T13:13:29.382Z,18.81
2022-09-03T13:18:34.728Z,18.91
2022-09-03T13:23:48.122Z,18.99
2022-09-03T13:29:30.251Z,18.29
2022-09-03T13:35:18.525Z,18.43
2022-09-03T13:40:23.671Z,18.40
2022-09-03T13:45:32.488Z,18.50
2022-09-03T13:51:05.350Z,18.69
2022-09-03T13:56:17.281Z,18.48
2022-09-03T14:01:23.137Z,18.48
2022-09-03T14:06:51.338Z,18.46
2022-09-03T14:12:05.683Z,18.57
2022-09-03T14:17:15.238Z,17.89
2022-09-03T14:22:19.338Z,17.95
2022-09-03T14:27:34.371Z,18.05
2022-09-03T14:32:56.389Z,17.98
2022-09-03T14:38:45.962Z,17.86
2022-09-03T14:44:16.698Z,17.92
2022-09-03T14:49:32.823Z,17.83
2022-09-03T14:54:59.905Z,18.12
2022-09-03T15:00:05.386Z,17.99
2022-09-03T15:05:52.429Z,17.18
2022-09-03T15:10:56.786Z,17.68
2022-09-03T15:16:17.686Z,17.30
2022-09-03T15:21:26.602Z,17.42
2022-09-03T15:27:11.621Z,17.58
2022-09-03T15:32:47.020Z,17.15
2022-09-03T15:38:20.262Z,17.32
2022-09-03T15:43:24.233Z,17.06
2022-09-03T15:48:31.453Z,17.03
2022-09-03T15:54:05.593Z,16.93
2022-09-03T15:59:12.355Z,16.95
2022-09-03T16:04:22.334Z,16.90
2022-09-03T16:09:29.977Z,16.65
2022-09-03T16:14:38.914Z,16.60
2022-09-03T16:19:48.167Z,16.50
2022-09-03T16:24:51.075Z,16.48
2022-09-03T16:30:09.077Z,16.68
2022-09-03T16:35:22.879Z,16.32
2022-09-03T16:40:29.009Z,16.43
2022-09-03T16:45:35.333Z,16.45
2022-09-03T16:50:56.643Z,16.53
2022-09-03T16:56:13.440Z,15.88
2022-09-03T17:01:22.129Z,16.45
2022-09-03T17:06:35.523Z,16.32
2022-09-03T17:12:14.909Z,16.33
2022-09-03T17:17:32.614Z,16.67
2022-09-03T17:23:06.402Z,16.57
2022-09-03T17:28:25.082Z,16.82
2022-09-03T17:33:54.953Z,16.55
2022-09-03T17:39:24.017Z,16.96
2022-09-03T17:44:53.167Z,17.06
2022-09-03T17:49:55.738Z,16.67
2022-09-03T17:54:57.301Z,16.77
2022-09-03T18:00:26.827Z,16.38
2022-09-03T18:05:44.432Z,16.58
2022-09-03T18:10:50.302Z,17.06
2022-09-03T18:15:53.700Z,17.07
2022-09-03T18:21:31.776Z,17.01
2022-09-03T18:26:55.361Z,16.85
2022-09-03T18:32:10.611Z,17.01
2022-09-03T18:37:26.884Z,17.41
2022-09-03T18:42:56.075Z,17.45
2022-09-03T18:48:22.349Z,17.58
2022-09-03T18:53:51.245Z,17.30
2022-09-03T18:59:25.236Z,17.29
2022-09-03T19:04:54.089Z,17.59
2022-09-03T19:10:20.084Z,17.24
2022-09-03T19:15:41.906Z,17.48
2022-09-03T19:21:16.565Z,17.42
2022-09-03T19:26:41.951Z,17.48
2022-09-03T19:32:03.268Z,17.48
2022-09-03T19:37:26.548Z,17.17
2022-09-03T19:42:58.517Z,17.11
2022-09-03T19:48:28.799Z,17.36
2022-09-03T19:53:45.895Z,17.43
2022-09-03T19:59:07.975Z,17.13
2022-09-03T20:04:30.921Z,17.42
2022-09-03T20:09:50.284Z,17.34
2022-09-03T20:14:48.622Z,17.18
2022-09-03T20:20:00.091Z,17.15
2022-09-03T20:25:20.701Z,16.87
2022-09-03T20:30:20.546Z,17.18
2022-09-03T20:35:33.252Z,17.21
2022-09-03T20:40:42.728Z,16.82
2022-09-03T20:45:58.422Z,17.02
2022-09-03T20:51:07.371Z,17.09
2022-09-03T20:56:16.071Z,16.60
2022-09-03T21:01:22.843Z,16.95
2022-09-03T21:06:30.814Z,17.16
2022-09-03T21:11:35.434Z,17.17
2022-09-03T21:16:44.121Z,16.89
2022-09-03T21:21:54.117Z,16.85
2022-09-03T21:26:56.968Z,16.93
2022-09-03T21:32:03.871Z,16.85
2022-09-03T21:37:04.158Z,16.82
2022-09-03T21:42:06.500Z,16.82
2022-09-03T21:47:08.925Z,16.97
2022-09-03T21:52:11.937Z,16.95
2022-09-03T21:57:22.275Z,17.13
2022-09-03T22:02:26.649Z,16.89
2022-09-03T22:07:37.400Z,16.76
2022-09-03T22:12:42.518Z,16.91
2022-09-03T22:17:48.018Z,17.01
2022-09-03T22:22:55.914Z,16.96
2022-09-03T22:28:00.975Z,16.57
2022-09-03T22:33:06.781Z,16.76
2022-09-03T22:38:26.348Z,16.95
2022-09-03T22:43:38.993Z,17.21
2022-09-03T22:49:11.327Z,17.24
2022-09-03T22:54:24.284Z,17.04
2022-09-03T22:59:28.150Z,16.90
2022-09-03T23:04:30.019Z,16.69
2022-09-03T23:09:37.798Z,16.77
2022-09-03T23:14:48.153Z,16.60
2022-09-03T23:19:49.741Z,16.65
2022-09-03T23:24:54.266Z,16.82
2022-09-03T23:29:57.211Z,16.92
2022-09-03T23:34:55.507Z,16.86
2022-09-03T23:40:13.469Z,16.93
2022-09-03T23:45:21.669Z,16.96
2022-09-03T23:50:28.988Z,16.90
2022-09-03T23:55:41.782Z,16.74
